createdAt,value
2023-05-15T00:02:26.890Z,9.65
2023-05-15T00:04:54.217Z,9.88
2023-05-15T00:07:21.164Z,10.25
2023-05-15T00:09:48.210Z,9.43
2023-05-15T00:12:15.578Z,10.30
2023-05-15T00:14:42.637Z,9.80
2023-05-15T00:17:10.028Z,9.20
2023-05-15T00:19:37.000Z,9.57
2023-05-15T00:22:04.213Z,8.88
2023-05-15T00:24:31.319Z,9.90
2023-05-15T00:27:00.863Z,9.70
2023-05-15T00:29:28.066Z,9.75
2023-05-15T00:31:55.124Z,9.35
2023-05-15T00:34:26.230Z,9.82
2023-05-15T00:36:53.236Z,9.60
2023-05-15T00:39:20.190Z,9.45
2023-05-15T00:41:49.941Z,10.63
2023-05-15T00:44:20.095Z,9.38
2023-05-15T00:46:48.761Z,9.82
2023-05-15T00:49:18.507Z,8.38
2023-05-15T00:51:46.331Z,7.82
2023-05-15T00:54:13.440Z,8.68
2023-05-15T00:59:11.877Z,8.63
2023-05-15T01:01:39.376Z,9.13
2023-05-15T01:04:06.361Z,9.88
2023-05-15T01:06:33.266Z,8.45
2023-05-15T01:09:04.004Z,9.73
2023-05-15T01:11:36.452Z,8.85
2023-05-15T01:14:06.643Z,9.13
2023-05-15T01:16:35.987Z,9.88
2023-05-15T01:19:04.261Z,9.80
2023-05-15T01:21:37.723Z,9.52
2023-05-15T01:24:27.816Z,9.68
2023-05-15T01:27:19.773Z,9.82
2023-05-15T01:30:04.752Z,10.40
2023-05-15T01:32:46.306Z,9.45
2023-05-15T01:35:25.671Z,9.55
2023-05-15T01:38:20.285Z,10.25
2023-05-15T01:40:59.821Z,9.25
2023-05-15T01:45:58.782Z,10.25
2023-05-15T01:48:28.508Z,10.73
2023-05-15T01:51:01.230Z,9.70
2023-05-15T01:53:32.053Z,9.57
2023-05-15T01:55:59.813Z,10.20
2023-05-15T01:58:28.596Z,10.20
2023-05-15T02:00:56.495Z,9.25
2023-05-15T02:03:24.845Z,9.73
2023-05-15T02:05:53.647Z,9.43
2023-05-15T02:08:21.722Z,10.40
2023-05-15T02:10:50.045Z,10.85
2023-05-15T02:13:22.489Z,10.60
2023-05-15T02:15:49.766Z,10.73
2023-05-15T02:18:16.914Z,10.77
2023-05-15T02:20:44.333Z,13.38
2023-05-15T02:23:11.351Z,11.18
2023-05-15T02:26:01.260Z,12.70
2023-05-15T02:28:38.869Z,12.15
2023-05-15T02:31:11.998Z,11.18
2023-05-15T02:33:52.958Z,12.30
2023-05-15T02:36:26.012Z,12.77
2023-05-15T02:38:53.973Z,11.80
2023-05-15T02:41:22.967Z,14.25
2023-05-15T02:43:52.038Z,11.80
2023-05-15T02:46:21.271Z,11.93
2023-05-15T02:51:15.593Z,12.32
2023-05-15T02:53:43.370Z,12.55
2023-05-15T02:56:10.544Z,13.57
2023-05-15T02:58:38.784Z,13.07
2023-05-15T03:01:06.187Z,13.43
2023-05-15T03:03:33.288Z,12.73
2023-05-15T03:06:01.132Z,13.57
2023-05-15T03:08:29.182Z,12.13
2023-05-15T03:10:56.248Z,13.55
2023-05-15T03:13:23.393Z,11.57
2023-05-15T03:15:50.304Z,11.93
2023-05-15T03:18:19.009Z,12.70
2023-05-15T03:20:48.684Z,13.98
2023-05-15T03:23:16.129Z,13.50
2023-05-15T03:25:43.134Z,13.57
2023-05-15T03:28:10.235Z,13.25
2023-05-15T03:30:37.252Z,13.80
2023-05-15T03:33:04.274Z,13.75
2023-05-15T03:35:32.520Z,13.85
2023-05-15T03:37:59.607Z,12.95
2023-05-15T03:40:26.642Z,12.90
2023-05-15T03:42:53.829Z,14.93
2023-05-15T03:45:21.506Z,16.20
2023-05-15T03:47:49.285Z,15.10
2023-05-15T03:50:16.480Z,15.13
2023-05-15T03:52:43.817Z,14.63
2023-05-15T03:55:11.175Z,14.27
2023-05-15T03:57:41.597Z,15.10
2023-05-15T04:00:12.257Z,14.05
2023-05-15T04:02:41.128Z,13.60
2023-05-15T04:05:08.990Z,14.23
2023-05-15T04:07:37.052Z,12.85
2023-05-15T04:10:04.846Z,12.75
2023-05-15T04:12:36.008Z,13.60
2023-05-15T04:15:23.797Z,12.98
2023-05-15T04:17:52.696Z,13.32
2023-05-15T04:20:21.862Z,14.63
2023-05-15T04:22:49.724Z,14.80
2023-05-15T04:25:18.125Z,15.48
2023-05-15T04:27:45.271Z,13.55
2023-05-15T04:30:12.926Z,15.18
2023-05-15T04:32:40.487Z,14.85
2023-05-15T04:35:10.254Z,13.63
2023-05-15T04:37:38.485Z,13.80
2023-05-15T04:40:07.589Z,13.13
2023-05-15T04:42:35.665Z,13.20
2023-05-15T04:45:03.135Z,14.77
2023-05-15T04:47:34.291Z,15.63
2023-05-15T04:50:01.309Z,14.52
2023-05-15T04:52:28.936Z,14.10
2023-05-15T04:54:56.267Z,13.40
2023-05-15T04:57:23.738Z,14.10
2023-05-15T04:59:50.719Z,13.85
2023-05-15T05:02:26.693Z,14.30
2023-05-15T05:04:53.651Z,14.88
2023-05-15T05:07:20.607Z,15.05
2023-05-15T05:09:47.705Z,14.63
2023-05-15T05:12:14.741Z,17.27
2023-05-15T05:14:42.325Z,17.05
2023-05-15T05:17:10.516Z,18.75
2023-05-15T05:19:37.439Z,17.95
2023-05-15T05:22:05.514Z,16.52
2023-05-15T05:24:32.780Z,16.60
2023-05-15T05:27:00.370Z,16.77
2023-05-15T05:29:27.518Z,17.98
2023-05-15T05:31:54.702Z,16.58
2023-05-15T05:34:21.878Z,16.55
2023-05-15T05:36:49.541Z,16.45
2023-05-15T05:39:17.182Z,17.45
2023-05-15T05:41:44.734Z,15.80
2023-05-15T05:44:11.666Z,16.08
2023-05-15T05:46:38.865Z,19.58
2023-05-15T05:49:06.322Z,24.08
2023-05-15T05:51:36.795Z,19.17
2023-05-15T05:54:04.088Z,15.68
2023-05-15T05:56:31.464Z,15.32
2023-05-15T05:58:59.640Z,16.02
2023-05-15T06:01:27.648Z,15.82
2023-05-15T06:03:56.020Z,14.77
2023-05-15T06:06:23.552Z,14.80
2023-05-15T06:08:50.628Z,14.70
2023-05-15T06:11:17.829Z,14.73
2023-05-15T06:13:45.037Z,15.32
2023-05-15T06:16:12.153Z,13.85
2023-05-15T06:18:39.167Z,13.88
2023-05-15T06:21:06.346Z,14.80
2023-05-15T06:23:33.287Z,14.68
2023-05-15T06:26:01.761Z,13.68
2023-05-15T06:28:28.961Z,14.05
2023-05-15T06:30:56.106Z,15.32
2023-05-15T06:33:23.035Z,15.80
2023-05-15T06:35:50.048Z,15.02
2023-05-15T06:38:16.992Z,15.82
2023-05-15T06:40:43.995Z,14.52
2023-05-15T06:43:11.154Z,15.63
2023-05-15T06:45:38.212Z,14.82
2023-05-15T06:48:05.412Z,15.27
2023-05-15T06:50:32.381Z,13.40
2023-05-15T06:52:59.325Z,15.13
2023-05-15T06:55:26.534Z,13.23
2023-05-15T06:57:53.822Z,13.52
2023-05-15T07:00:21.059Z,13.90
2023-05-15T07:02:48.049Z,13.23
2023-05-15T07:05:15.352Z,12.38
2023-05-15T07:07:42.997Z,11.50
2023-05-15T07:10:10.295Z,13.02
2023-05-15T07:12:37.292Z,12.60
2023-05-15T07:15:05.593Z,12.40
2023-05-15T07:17:34.082Z,11.53
2023-05-15T07:20:01.427Z,13.00
2023-05-15T07:22:29.421Z,13.15
2023-05-15T07:24:56.435Z,11.70
2023-05-15T07:27:23.448Z,12.15
2023-05-15T07:29:50.550Z,12.20
2023-05-15T07:32:17.548Z,12.68
2023-05-15T07:34:44.560Z,12.60
2023-05-15T07:37:11.475Z,12.43
2023-05-15T07:39:38.475Z,12.38
2023-05-15T07:42:05.570Z,13.10
2023-05-15T07:44:32.509Z,13.35
2023-05-15T07:46:59.841Z,13.63
2023-05-15T07:49:26.798Z,13.60
2023-05-15T07:51:53.656Z,14.43
2023-05-15T07:54:20.918Z,13.35
2023-05-15T07:56:47.933Z,12.65
2023-05-15T07:59:16.140Z,12.55
2023-05-15T08:01:43.120Z,14.52
2023-05-15T08:04:10.217Z,14.15
2023-05-15T08:06:38.452Z,14.32
2023-05-15T08:09:05.445Z,14.70
2023-05-15T08:11:32.402Z,13.73
2023-05-15T08:13:59.496Z,13.93
2023-05-15T08:16:26.567Z,14.90
2023-05-15T08:19:01.026Z,14.07
2023-05-15T08:21:28.035Z,14.63
2023-05-15T08:23:54.989Z,15.93
2023-05-15T08:26:22.513Z,16.65
2023-05-15T08:28:49.405Z,15.57
2023-05-15T08:31:16.389Z,15.80
2023-05-15T08:33:43.479Z,16.60
2023-05-15T08:36:10.605Z,15.80
2023-05-15T08:38:37.468Z,15.95
2023-05-15T08:41:40.998Z,15.73
2023-05-15T08:44:09.669Z,14.95
2023-05-15T08:46:36.905Z,13.80
2023-05-15T08:49:20.805Z,13.95
2023-05-15T08:51:48.329Z,14.50
2023-05-15T08:54:16.205Z,14.65
2023-05-15T08:56:43.579Z,14.13
2023-05-15T08:59:10.724Z,13.75
2023-05-15T09:01:38.011Z,14.07
2023-05-15T09:04:05.153Z,13.35
2023-05-15T09:06:34.063Z,12.93
2023-05-15T09:09:01.909Z,12.90
2023-05-15T09:11:31.193Z,14.73
2023-05-15T09:13:59.755Z,13.73
2023-05-15T09:16:27.442Z,14.02
2023-05-15T09:18:54.619Z,14.23
2023-05-15T09:21:26.251Z,15.73
2023-05-15T09:23:55.058Z,14.90
2023-05-15T09:26:22.216Z,13.73
2023-05-15T09:28:49.736Z,13.40
2023-05-15T09:31:19.606Z,13.60
2023-05-15T09:33:46.762Z,14.73
2023-05-15T09:36:22.276Z,14.57
2023-05-15T09:38:49.832Z,13.85
2023-05-15T09:41:25.832Z,14.70
2023-05-15T09:43:56.165Z,13.00
2023-05-15T09:46:24.016Z,13.50
2023-05-15T09:48:55.482Z,14.02
2023-05-15T09:51:23.021Z,13.43
2023-05-15T09:53:52.067Z,11.88
2023-05-15T09:56:19.530Z,12.73
2023-05-15T09:58:57.463Z,12.95
2023-05-15T10:01:26.190Z,11.73
2023-05-15T10:03:58.711Z,11.80
2023-05-15T10:06:25.755Z,11.30
2023-05-15T10:08:54.268Z,10.85
2023-05-15T10:11:23.938Z,11.60
2023-05-15T10:13:50.853Z,10.52
2023-05-15T10:16:21.841Z,11.60
2023-05-15T10:18:51.735Z,11.48
2023-05-15T10:21:20.548Z,11.63
2023-05-15T10:23:50.131Z,12.68
2023-05-15T10:26:33.295Z,11.52
2023-05-15T10:29:01.269Z,12.05
2023-05-15T10:31:30.211Z,11.82
2023-05-15T10:33:57.636Z,11.80
2023-05-15T10:36:25.443Z,11.43
2023-05-15T10:38:53.137Z,11.63
2023-05-15T10:41:22.315Z,11.05
2023-05-15T10:46:17.127Z,11.98
2023-05-15T10:48:44.381Z,11.88
2023-05-15T10:51:19.018Z,12.15
2023-05-15T10:53:46.313Z,11.20
2023-05-15T10:56:17.221Z,11.07
2023-05-15T10:58:48.850Z,10.93
2023-05-15T11:01:26.979Z,12.27
2023-05-15T11:04:15.050Z,12.40
2023-05-15T11:06:47.638Z,12.55
2023-05-15T11:09:36.987Z,12.32
2023-05-15T11:12:05.622Z,12.02
2023-05-15T11:14:41.095Z,11.67
2023-05-15T11:17:15.310Z,13.45
2023-05-15T11:19:51.554Z,12.13
2023-05-15T11:22:26.875Z,13.00
2023-05-15T11:25:12.468Z,13.30
2023-05-15T11:27:44.260Z,12.80
2023-05-15T11:30:22.555Z,12.45
2023-05-15T11:32:54.766Z,13.73
2023-05-15T11:35:34.835Z,12.80
2023-05-15T11:38:11.109Z,12.32
2023-05-15T11:40:46.559Z,13.75
2023-05-15T11:43:22.573Z,14.60
2023-05-15T11:45:58.129Z,13.18
2023-05-15T11:48:32.939Z,12.98
2023-05-15T11:51:04.339Z,12.13
2023-05-15T11:53:33.422Z,13.00
2023-05-15T11:56:00.875Z,13.10
2023-05-15T11:58:28.371Z,12.75
2023-05-15T12:00:55.441Z,12.38
2023-05-15T12:03:25.634Z,13.00
2023-05-15T12:05:59.494Z,12.10
2023-05-15T12:08:35.356Z,11.77
2023-05-15T12:11:03.602Z,13.07
2023-05-15T12:13:32.261Z,11.95
2023-05-15T12:16:00.928Z,11.43
2023-05-15T12:18:27.947Z,10.60
2023-05-15T12:20:55.231Z,11.75
2023-05-15T12:23:24.513Z,11.73
2023-05-15T12:25:57.695Z,10.73
2023-05-15T12:28:25.410Z,12.05
2023-05-15T12:30:53.100Z,11.65
2023-05-15T12:33:20.404Z,11.27
2023-05-15T12:35:54.957Z,12.02
2023-05-15T12:38:24.983Z,12.45
2023-05-15T12:40:57.041Z,13.02
2023-05-15T12:43:25.338Z,11.90
2023-05-15T12:45:53.875Z,12.35
2023-05-15T12:48:21.901Z,12.98
2023-05-15T12:50:49.946Z,11.73
2023-05-15T12:53:17.554Z,11.90
2023-05-15T12:55:46.898Z,12.48
2023-05-15T13:00:46.113Z,8.73
2023-05-15T13:03:14.510Z,9.27
2023-05-15T13:05:45.588Z,8.98
2023-05-15T13:08:17.753Z,9.60
2023-05-15T13:10:45.501Z,9.20
2023-05-15T13:13:12.642Z,9.05
2023-05-15T13:15:42.748Z,8.85
2023-05-15T13:18:10.597Z,9.25
2023-05-15T13:20:47.324Z,9.43
2023-05-15T13:23:19.720Z,8.98
2023-05-15T13:25:47.641Z,9.90
2023-05-15T13:28:14.731Z,8.65
2023-05-15T13:30:42.305Z,8.77
2023-05-15T13:33:11.936Z,9.02
2023-05-15T13:35:40.318Z,9.27
2023-05-15T13:38:10.339Z,9.15
2023-05-15T13:40:38.632Z,10.68
2023-05-15T13:43:08.621Z,8.63
2023-05-15T13:45:35.791Z,13.23
2023-05-15T13:48:04.239Z,9.98
2023-05-15T13:50:31.184Z,9.02
2023-05-15T13:52:58.246Z,8.65
2023-05-15T13:55:26.152Z,9.05
2023-05-15T13:57:53.377Z,9.60
2023-05-15T14:00:21.412Z,9.68
2023-05-15T14:02:48.494Z,9.05
2023-05-15T14:05:16.333Z,9.80
2023-05-15T14:07:43.402Z,8.77
2023-05-15T14:10:11.311Z,9.73
2023-05-15T14:12:38.669Z,9.80
2023-05-15T14:15:06.496Z,8.65
2023-05-15T14:17:35.336Z,9.20
2023-05-15T14:20:02.690Z,9.75
2023-05-15T14:24:58.641Z,8.95
2023-05-15T14:27:25.793Z,8.73
2023-05-15T14:29:52.878Z,9.13
2023-05-15T14:32:20.080Z,8.52
2023-05-15T14:34:47.138Z,8.88
2023-05-15T14:37:14.272Z,8.25
2023-05-15T14:39:41.328Z,8.00
2023-05-15T14:42:08.303Z,8.15
2023-05-15T14:44:35.336Z,8.00
2023-05-15T14:47:20.373Z,8.07
2023-05-15T14:49:47.794Z,7.57
2023-05-15T14:52:14.724Z,6.60
2023-05-15T14:54:41.690Z,6.50
2023-05-15T14:57:08.880Z,5.55
2023-05-15T14:59:35.910Z,6.85
2023-05-15T15:02:02.961Z,5.88
2023-05-15T15:04:34.154Z,5.95
2023-05-15T15:07:04.174Z,6.85
2023-05-15T15:09:31.442Z,5.95
2023-05-15T15:11:58.523Z,6.20
2023-05-15T15:14:25.561Z,5.60
2023-05-15T15:16:52.467Z,6.15
2023-05-15T15:19:20.416Z,6.75
2023-05-15T15:21:47.832Z,8.40
2023-05-15T15:24:15.467Z,5.75
2023-05-15T15:26:42.641Z,5.95
2023-05-15T15:29:09.620Z,5.40
2023-05-15T15:31:36.603Z,5.63
2023-05-15T15:34:05.589Z,5.22
2023-05-15T15:38:59.676Z,6.45
2023-05-15T15:41:26.681Z,5.93
2023-05-15T15:43:53.833Z,5.53
2023-05-15T15:46:20.931Z,6.32
2023-05-15T15:48:48.525Z,5.90
2023-05-15T15:51:16.276Z,5.93
2023-05-15T15:53:43.134Z,6.63
2023-05-15T15:56:10.067Z,6.75
2023-05-15T15:58:36.956Z,6.45
2023-05-15T16:01:04.131Z,6.45
2023-05-15T16:03:31.599Z,43.47
2023-05-15T16:06:00.138Z,7.97
2023-05-15T16:08:27.373Z,6.60
2023-05-15T16:11:13.022Z,7.43
2023-05-15T16:13:41.061Z,7.15
2023-05-15T16:16:08.653Z,7.03
2023-05-15T16:18:35.757Z,7.78
2023-05-15T16:21:02.769Z,8.00
2023-05-15T16:23:33.978Z,7.85
2023-05-15T16:26:02.383Z,7.68
2023-05-15T16:28:29.278Z,8.25
2023-05-15T16:30:56.770Z,8.98
2023-05-15T16:33:23.973Z,10.55
2023-05-15T16:35:51.982Z,10.32
2023-05-15T16:38:20.078Z,11.00
2023-05-15T16:40:47.107Z,10.75
2023-05-15T16:43:14.313Z,12.15
2023-05-15T16:45:41.293Z,12.75
2023-05-15T16:48:08.496Z,12.00
2023-05-15T16:50:36.454Z,12.75
2023-05-15T16:53:04.965Z,13.05
2023-05-15T16:55:32.439Z,11.90
2023-05-15T16:57:59.637Z,12.70
2023-05-15T17:00:27.024Z,13.43
2023-05-15T17:02:54.844Z,13.50
2023-05-15T17:05:21.978Z,12.50
2023-05-15T17:07:48.913Z,13.45
2023-05-15T17:10:16.277Z,13.18
2023-05-15T17:12:43.381Z,13.65
2023-05-15T17:15:11.551Z,14.55
2023-05-15T17:17:38.468Z,14.45
2023-05-15T17:20:06.571Z,14.10
2023-05-15T17:22:34.370Z,13.98
2023-05-15T17:25:01.391Z,14.25
2023-05-15T17:27:31.293Z,14.88
2023-05-15T17:29:58.842Z,15.43
2023-05-15T17:32:25.908Z,14.93
2023-05-15T17:34:53.059Z,15.10
2023-05-15T17:37:19.958Z,14.30
2023-05-15T17:39:46.961Z,14.85
2023-05-15T17:42:13.919Z,15.73
2023-05-15T17:44:40.961Z,16.08
2023-05-15T17:47:09.830Z,14.73
2023-05-15T17:49:38.157Z,15.38
2023-05-15T17:52:06.086Z,15.20
2023-05-15T17:54:33.187Z,15.10
2023-05-15T17:57:00.357Z,15.23
2023-05-15T17:59:27.591Z,14.73
2023-05-15T18:01:54.701Z,14.00
2023-05-15T18:04:21.771Z,13.73
2023-05-15T18:06:49.112Z,13.23
2023-05-15T18:09:23.210Z,14.13
2023-05-15T18:11:51.599Z,14.65
2023-05-15T18:14:21.589Z,14.88
2023-05-15T18:16:48.710Z,14.38
2023-05-15T18:19:16.155Z,14.77
2023-05-15T18:21:43.090Z,15.75
2023-05-15T18:24:10.117Z,16.45
2023-05-15T18:26:37.055Z,15.50
2023-05-15T18:29:04.415Z,17.92
2023-05-15T18:31:31.539Z,17.70
2023-05-15T18:33:58.494Z,17.67
2023-05-15T18:36:25.881Z,17.83
2023-05-15T18:38:52.945Z,20.00
2023-05-15T18:41:19.916Z,18.55
2023-05-15T18:43:47.051Z,18.48
2023-05-15T18:46:14.061Z,17.58
2023-05-15T18:48:41.147Z,19.10
2023-05-15T18:51:09.666Z,17.38
2023-05-15T18:53:36.991Z,18.90
2023-05-15T18:56:04.599Z,19.67
2023-05-15T18:58:31.743Z,19.50
2023-05-15T19:00:58.898Z,19.02
2023-05-15T19:03:26.304Z,19.80
2023-05-15T19:05:53.348Z,19.10
2023-05-15T19:08:20.613Z,18.52
2023-05-15T19:10:48.473Z,32.95
2023-05-15T19:13:15.519Z,20.25
2023-05-15T19:15:50.792Z,18.92
2023-05-15T19:18:18.343Z,19.80
2023-05-15T19:20:49.693Z,19.30
2023-05-15T19:23:16.698Z,17.73
2023-05-15T19:25:45.042Z,19.45
2023-05-15T19:28:13.158Z,20.02
2023-05-15T19:30:40.478Z,19.33
2023-05-15T19:33:07.632Z,20.08
2023-05-15T19:35:36.702Z,19.90
2023-05-15T19:38:04.665Z,19.20
2023-05-15T19:40:31.612Z,19.65
2023-05-15T19:42:58.622Z,20.23
2023-05-15T19:45:25.714Z,20.48
2023-05-15T19:47:53.170Z,21.15
2023-05-15T19:50:20.481Z,20.80
2023-05-15T19:52:47.605Z,22.48
2023-05-15T19:55:15.435Z,21.45
2023-05-15T19:57:44.917Z,21.27
2023-05-15T20:00:12.812Z,20.25
2023-05-15T20:02:41.473Z,18.65
2023-05-15T20:05:09.418Z,20.67
2023-05-15T20:07:37.006Z,20.60
2023-05-15T20:10:04.766Z,20.73
2023-05-15T20:12:31.828Z,20.95
2023-05-15T20:14:58.753Z,20.30
2023-05-15T20:17:25.737Z,19.90
2023-05-15T20:19:53.879Z,21.52
2023-05-15T20:22:20.721Z,21.40
2023-05-15T20:24:48.255Z,21.95
2023-05-15T20:27:15.367Z,21.88
2023-05-15T20:29:42.267Z,20.92
2023-05-15T20:32:09.239Z,22.15
2023-05-15T20:34:36.929Z,21.90
2023-05-15T20:37:03.910Z,21.30
2023-05-15T20:39:31.178Z,20.75
2023-05-15T20:41:58.081Z,23.55
2023-05-15T20:44:25.120Z,21.30
2023-05-15T20:46:52.050Z,22.63
2023-05-15T20:49:19.085Z,23.00
2023-05-15T20:51:48.578Z,22.17
2023-05-15T20:54:16.160Z,22.02
2023-05-15T20:56:43.253Z,22.42
2023-05-15T20:59:10.349Z,22.17
2023-05-15T21:01:37.199Z,21.95
2023-05-15T21:04:04.507Z,22.55
2023-05-15T21:06:31.697Z,22.25
2023-05-15T21:08:58.618Z,23.15
2023-05-15T21:11:25.823Z,23.00
2023-05-15T21:13:52.793Z,22.45
2023-05-15T21:16:19.764Z,23.50
2023-05-15T21:18:48.901Z,22.42
2023-05-15T21:21:16.619Z,23.02
2023-05-15T21:23:43.674Z,22.58
2023-05-15T21:26:11.005Z,23.45
2023-05-15T21:28:37.919Z,23.25
2023-05-15T21:31:11.668Z,23.25
2023-05-15T21:33:38.729Z,22.17
2023-05-15T21:36:06.019Z,23.17
2023-05-15T21:38:33.080Z,22.02
2023-05-15T21:41:01.123Z,22.33
2023-05-15T21:43:28.251Z,21.88
2023-05-15T21:45:56.135Z,22.45
2023-05-15T21:48:23.282Z,21.73
2023-05-15T21:50:50.796Z,21.67
2023-05-15T21:53:17.690Z,22.65
2023-05-15T21:55:44.665Z,21.92
2023-05-15T21:58:11.674Z,21.60
2023-05-15T22:00:39.915Z,20.77
2023-05-15T22:03:06.920Z,21.65
2023-05-15T22:05:34.386Z,20.85
2023-05-15T22:08:01.248Z,21.38
2023-05-15T22:10:28.485Z,20.08
2023-05-15T22:12:55.513Z,19.08
2023-05-15T22:15:22.871Z,18.77
2023-05-15T22:17:50.406Z,18.15
2023-05-15T22:20:19.027Z,19.05
2023-05-15T22:22:46.368Z,40.50
2023-05-15T22:25:13.721Z,19.30
2023-05-15T22:27:41.073Z,18.55
2023-05-15T22:30:08.828Z,17.00
2023-05-15T22:32:35.957Z,17.60
2023-05-15T22:35:03.624Z,16.65
2023-05-15T22:37:31.824Z,16.02
2023-05-15T22:39:58.892Z,16.48
2023-05-15T22:42:27.843Z,15.65
2023-05-15T22:44:58.002Z,17.90
2023-05-15T22:47:28.255Z,15.48
2023-05-15T22:49:55.227Z,16.58
2023-05-15T22:52:22.667Z,16.00
2023-05-15T22:54:49.754Z,14.73
2023-05-15T22:57:16.752Z,16.30
2023-05-15T22:59:44.072Z,15.98
2023-05-15T23:02:11.151Z,16.65
2023-05-15T23:04:38.030Z,16.88
2023-05-15T23:07:05.143Z,17.80
2023-05-15T23:09:32.025Z,16.33
2023-05-15T23:11:59.024Z,16.52
2023-05-15T23:14:25.962Z,17.13
2023-05-15T23:16:52.914Z,16.95
2023-05-15T23:19:19.927Z,18.80
2023-05-15T23:21:47.294Z,18.27
2023-05-15T23:24:14.330Z,16.95
2023-05-15T23:26:41.268Z,16.33
2023-05-15T23:29:08.553Z,16.58
2023-05-15T23:31:35.627Z,16.25
2023-05-15T23:34:02.545Z,17.63
2023-05-15T23:36:29.548Z,17.48
2023-05-15T23:38:56.500Z,17.08
2023-05-15T23:41:23.486Z,16.40
2023-05-15T23:43:50.537Z,17.67
2023-05-15T23:46:18.194Z,16.58
2023-05-15T23:48:45.090Z,17.02
2023-05-15T23:51:12.156Z,16.52
2023-05-15T23:53:39.006Z,17.13
2023-05-15T23:56:07.088Z,17.10
2023-05-15T23:58:34.307Z,17.60
